Time;durP1;ratioP1;P1;durP2;ratioP2;P2;SDS_P1;SDS_P2;PMS_P1;PMS_P2;Temp;Humidity;BMP_temperature;BMP_pressure;BME280_temperature;BME280_humidity;BME280_pressure;Samples;Min_cycle;Max_cycle;Signal;HPM_P1;HPM_P2
2022/06/16 04:00:11;;;;;;;12.57;7.13;;;13.60;99.90;;;;;;6080598;23;20089;31
2022/06/16 04:02:36;;;;;;;9.30;7.55;;;13.90;99.90;;;;;;4948066;28;19962;-72
2022/06/16 04:05:02;;;;;;;7.97;7.18;;;14.00;99.90;;;;;;4956021;28;20044;-72
2022/06/16 04:07:28;;;;;;;8.23;7.25;;;14.10;99.90;;;;;;4954353;28;20067;-76
2022/06/16 04:09:54;;;;;;;9.02;7.45;;;14.30;99.90;;;;;;4956774;28;20851;-73
2022/06/16 04:14:59;;;;;;;11.40;7.20;;;14.60;99.90;;;;;;4973528;28;20424;-77
2022/06/16 04:17:25;;;;;;;8.98;6.75;;;14.80;99.90;;;;;;4972113;28;20031;-77
2022/06/16 04:22:35;;;;;;;8.98;7.50;;;15.10;99.90;;;;;;4974018;28;20047;-77
2022/06/16 04:25:01;;;;;;;7.78;6.57;;;15.20;99.90;;;;;;4975440;28;20035;-77
2022/06/16 04:27:26;;;;;;;9.95;6.85;;;15.30;99.90;;;;;;4975287;28;20367;-77
2022/06/16 04:29:52;;;;;;;7.82;6.50;;;15.50;99.90;;;;;;4975242;28;20145;-77
2022/06/16 04:32:17;;;;;;;7.78;6.20;;;15.70;99.90;;;;;;4974426;28;20556;-77
2022/06/16 04:34:44;;;;;;;7.72;6.45;;;15.90;99.90;;;;;;4974894;28;20042;-77
2022/06/16 04:37:10;;;;;;;7.28;6.57;;;16.00;99.90;;;;;;4974143;28;20071;-77
2022/06/16 04:39:36;;;;;;;8.52;6.43;;;16.20;99.90;;;;;;4975364;28;20039;-77
2022/06/16 04:42:02;;;;;;;7.75;6.95;;;16.30;99.90;;;;;;4961984;28;20106;-77
2022/06/16 04:44:27;;;;;;;10.43;6.50;;;16.40;99.90;;;;;;4954428;28;20040;-77
2022/06/16 04:46:53;;;;;;;7.50;5.95;;;16.60;99.90;;;;;;4956025;28;20067;-77
2022/06/16 04:49:18;;;;;;;6.80;6.00;;;16.70;99.90;;;;;;4954951;28;20031;-77
2022/06/16 04:51:44;;;;;;;8.07;6.13;;;16.90;99.90;;;;;;4966399;28;20039;-77
2022/06/16 04:54:10;;;;;;;6.40;5.65;;;17.00;99.90;;;;;;4974925;28;20035;-77
2022/06/16 04:56:35;;;;;;;8.00;6.05;;;17.20;99.90;;;;;;4974979;28;20174;-77
2022/06/16 04:59:01;;;;;;;8.32;5.95;;;17.50;99.90;;;;;;4975449;28;20042;-77
2022/06/16 05:01:26;;;;;;;7.03;6.30;;;17.70;99.90;;;;;;4966408;28;20052;-77
2022/06/16 05:03:52;;;;;;;6.13;5.53;;;17.90;99.90;;;;;;4955729;28;20064;-77
2022/06/16 05:06:18;;;;;;;9.38;5.70;;;18.00;99.90;;;;;;4955551;28;20086;-77
2022/06/16 05:08:43;;;;;;;10.05;6.40;;;18.10;99.90;;;;;;4955392;28;20402;-77
2022/06/16 05:11:09;;;;;;;9.10;5.55;;;18.20;99.90;;;;;;4961002;28;20159;-77
2022/06/16 05:13:35;;;;;;;6.70;5.47;;;18.30;99.90;;;;;;4974614;28;20059;-77
2022/06/16 05:16:00;;;;;;;7.20;5.97;;;18.30;99.90;;;;;;4973299;28;20536;-77
2022/06/16 05:18:26;;;;;;;7.07;5.63;;;18.30;99.90;;;;;;4974369;28;20429;-77
2022/06/16 05:20:52;;;;;;;6.93;5.43;;;18.50;99.90;;;;;;4961296;28;20095;-77
2022/06/16 05:23:17;;;;;;;7.80;5.70;;;18.60;99.90;;;;;;4978099;28;20043;-78
2022/06/16 05:25:43;;;;;;;6.40;5.55;;;18.80;99.90;;;;;;4978596;28;20042;-77
2022/06/16 05:28:10;;;;;;;6.32;5.70;;;18.90;99.90;;;;;;4979438;28;20036;-77
2022/06/16 05:30:35;;;;;;;6.50;5.78;;;19.00;99.90;;;;;;4977914;28;20069;-77
2022/06/16 05:33:01;;;;;;;7.32;5.85;;;19.10;99.90;;;;;;4964905;28;20053;-77
2022/06/16 05:35:27;;;;;;;6.35;5.75;;;19.10;99.90;;;;;;4977688;28;20031;-77
2022/06/16 05:37:53;;;;;;;6.70;5.30;;;19.20;99.90;;;;;;4977691;28;20067;-77
2022/06/16 05:40:19;;;;;;;8.60;5.53;;;19.30;99.90;;;;;;4977910;28;20111;-77
2022/06/16 05:42:44;;;;;;;7.95;5.45;;;19.40;99.90;;;;;;4963467;28;20035;-77
2022/06/16 05:45:11;;;;;;;6.45;5.18;;;19.40;99.90;;;;;;4977872;28;20063;-77
2022/06/16 05:47:38;;;;;;;5.80;5.30;;;19.30;99.90;;;;;;4977692;28;20037;-77
2022/06/16 05:50:04;;;;;;;7.88;5.85;;;19.20;99.90;;;;;;4974865;28;20039;-77
2022/06/16 05:52:30;;;;;;;7.55;5.10;;;19.30;99.90;;;;;;4961543;28;20042;-77
2022/06/16 05:54:56;;;;;;;6.40;5.40;;;19.40;99.90;;;;;;4958399;28;20042;-77
2022/06/16 05:57:21;;;;;;;8.80;5.70;;;19.40;99.90;;;;;;4956688;28;20437;-76
2022/06/16 05:59:47;;;;;;;5.82;4.93;;;19.50;99.90;;;;;;4958012;28;20524;-77
2022/06/16 06:02:18;;;;;;;8.32;5.38;;;19.70;99.90;;;;;;4970330;28;20087;-77
2022/06/16 06:04:45;;;;;;;5.78;5.18;;;19.70;99.90;;;;;;4956854;28;20043;-77
2022/06/16 06:07:10;;;;;;;5.18;4.65;;;19.60;99.90;;;;;;4976209;28;20038;-77
2022/06/16 06:17:47;;;;;;;8.30;5.63;;;20.20;99.90;;;;;;4977492;28;20039;-77
2022/06/16 06:20:12;;;;;;;6.60;5.18;;;20.20;99.90;;;;;;4965561;28;20489;-77
2022/06/16 06:22:38;;;;;;;8.13;5.13;;;20.40;99.90;;;;;;4958582;28;20398;-77
2022/06/16 06:25:04;;;;;;;8.98;5.35;;;20.80;99.90;;;;;;4957648;28;20032;-77
2022/06/16 06:27:38;;;;;;;6.65;5.28;;;21.00;99.90;;;;;;4957603;28;20130;-77
2022/06/16 06:30:08;;;;;;;5.70;5.20;;;21.20;99.90;;;;;;4957257;28;20064;-77
2022/06/16 06:32:34;;;;;;;7.30;5.10;;;21.40;99.90;;;;;;4956762;28;20557;-77
2022/06/16 06:35:00;;;;;;;6.72;5.55;;;21.60;99.90;;;;;;4977001;28;20098;-77
2022/06/16 06:37:27;;;;;;;7.30;5.25;;;21.50;99.90;;;;;;4976553;28;20034;-77
2022/06/16 06:39:53;;;;;;;8.02;5.22;;;21.40;99.90;;;;;;4977049;28;20614;-77
2022/06/16 06:42:20;;;;;;;6.18;5.20;;;21.40;99.90;;;;;;4977328;28;20042;-78
2022/06/16 06:44:46;;;;;;;9.65;5.72;;;21.60;99.90;;;;;;4976604;28;20126;-76
2022/06/16 06:47:32;;;;;;;7.97;5.57;;;21.50;99.90;;;;;;4976869;28;20070;-75
2022/06/16 06:49:57;;;;;;;8.35;5.63;;;21.50;99.90;;;;;;4970535;28;20054;-76
2022/06/16 06:52:23;;;;;;;7.07;5.80;;;21.60;99.50;;;;;;4969642;28;20039;-83
2022/06/16 06:54:49;;;;;;;5.75;5.13;;;21.60;99.20;;;;;;4976986;28;20042;-77
2022/06/16 06:57:21;;;;;;;7.47;5.57;;;21.60;99.40;;;;;;4976178;28;20382;-78
2022/06/16 06:59:46;;;;;;;8.65;5.80;;;21.60;99.70;;;;;;4963540;28;20047;-73
2022/06/16 07:02:14;;;;;;;7.38;5.70;;;21.90;99.40;;;;;;4962436;28;20039;-71
2022/06/16 07:04:40;;;;;;;7.82;5.18;;;21.90;99.10;;;;;;4974735;28;20485;-72
2022/06/16 07:07:08;;;;;;;8.48;4.80;;;22.10;96.60;;;;;;4974222;28;20039;-73
2022/06/16 07:09:34;;;;;;;7.95;5.38;;;22.30;94.90;;;;;;4975696;28;20130;-71
2022/06/16 07:11:59;;;;;;;6.20;5.60;;;22.50;94.60;;;;;;4974287;28;20038;-71
2022/06/16 07:14:26;;;;;;;7.95;5.07;;;22.40;95.50;;;;;;4974248;28;20497;-71
2022/06/16 07:16:52;;;;;;;8.10;5.38;;;22.30;95.40;;;;;;4976379;28;20030;-73
2022/06/16 07:19:18;;;;;;;6.18;5.47;;;22.50;95.50;;;;;;4975508;28;20047;-74
2022/06/16 07:21:44;;;;;;;8.55;6.53;;;22.60;96.20;;;;;;4975860;28;20039;-73
2022/06/16 07:24:10;;;;;;;11.35;5.95;;;22.60;95.20;;;;;;4975680;28;20035;-74
2022/06/16 07:26:35;;;;;;;8.98;6.20;;;22.70;95.20;;;;;;4969193;28;20580;-72
2022/06/16 07:29:01;;;;;;;8.55;6.22;;;22.80;95.30;;;;;;4976439;28;20390;-72
2022/06/16 07:31:28;;;;;;;10.23;6.25;;;23.10;94.60;;;;;;4973911;28;20526;-73
2022/06/16 07:33:54;;;;;;;9.15;5.93;;;23.30;95.50;;;;;;4954622;28;20454;-72
2022/06/16 07:36:20;;;;;;;8.02;6.25;;;23.60;93.40;;;;;;4956971;28;21266;-72
2022/06/16 07:38:46;;;;;;;8.32;6.70;;;23.80;92.70;;;;;;4956607;28;20123;-72
2022/06/16 07:44:00;;;;;;;8.05;5.68;;;23.60;92.50;;;;;;4975664;28;20074;-72
2022/06/16 07:46:26;;;;;;;10.55;5.93;;;23.80;93.40;;;;;;4975294;28;20126;-72
2022/06/16 07:48:52;;;;;;;8.32;5.97;;;24.10;92.60;;;;;;4960162;28;20476;-74
2022/06/16 07:51:18;;;;;;;6.63;5.88;;;24.50;91.40;;;;;;4955573;28;20114;-73
2022/06/16 07:53:44;;;;;;;10.07;6.25;;;24.40;91.40;;;;;;4965142;28;20042;-73
2022/06/16 07:56:09;;;;;;;8.30;5.60;;;24.30;90.70;;;;;;4975214;28;20393;-72
2022/06/16 07:58:35;;;;;;;6.03;5.43;;;24.30;90.90;;;;;;4976063;28;20046;-72
2022/06/16 08:01:01;;;;;;;8.82;5.63;;;24.40;90.20;;;;;;4972503;28;20079;-72
2022/06/16 08:03:28;;;;;;;10.93;6.15;;;24.80;90.40;;;;;;4956716;28;20047;-73
2022/06/16 08:05:58;;;;;;;7.78;6.18;;;25.10;90.50;;;;;;4956462;28;20739;-73
2022/06/16 08:08:25;;;;;;;8.65;6.25;;;25.40;88.00;;;;;;4955053;28;20053;-73
2022/06/16 08:10:52;;;;;;;9.13;6.47;;;25.30;87.40;;;;;;4959048;28;20240;-73
2022/06/16 08:13:18;;;;;;;7.57;5.68;;;25.20;87.40;;;;;;4962484;28;20125;-73
2022/06/16 08:15:45;;;;;;;10.85;6.20;;;24.90;90.40;;;;;;4963085;28;20027;-73
2022/06/16 08:18:14;;;;;;;11.40;6.32;;;25.10;88.20;;;;;;4973406;28;20045;-74
2022/06/16 08:20:41;;;;;;;9.10;6.20;;;25.10;87.80;;;;;;4960161;28;20086;-73
2022/06/16 08:23:07;;;;;;;8.43;5.15;;;25.40;88.30;;;;;;4962396;28;20035;-74
2022/06/16 08:25:35;;;;;;;6.60;5.47;;;25.60;87.40;;;;;;4965584;28;20044;-74
2022/06/16 08:28:03;;;;;;;8.23;5.63;;;25.80;85.90;;;;;;4955070;28;20493;-73
2022/06/16 08:30:30;;;;;;;8.88;5.40;;;26.00;84.30;;;;;;4950690;28;20066;-73
2022/06/16 08:32:56;;;;;;;6.63;5.68;;;26.10;84.00;;;;;;4966067;28;20528;-75
2022/06/16 08:35:22;;;;;;;7.47;6.30;;;26.20;84.10;;;;;;4975314;28;20046;-73
2022/06/16 08:37:48;;;;;;;7.20;5.57;;;26.20;83.70;;;;;;4972872;28;20058;-77
2022/06/16 08:40:15;;;;;;;7.32;5.78;;;26.30;83.80;;;;;;4976055;28;20035;-78
2022/06/16 08:43:05;;;;;;;8.55;5.70;;;26.40;82.90;;;;;;4955081;28;20087;-77
2022/06/16 08:45:52;;;;;;;9.60;5.72;;;26.60;81.10;;;;;;4954211;28;20071;-81
2022/06/16 08:48:37;;;;;;;6.10;5.03;;;26.70;82.50;;;;;;4956056;28;20099;-77
2022/06/16 08:51:19;;;;;;;6.88;5.45;;;26.90;82.80;;;;;;4955826;28;20084;-77
2022/06/16 08:54:13;;;;;;;8.25;6.13;;;26.80;81.80;;;;;;4959147;28;20036;-77
2022/06/16 08:56:54;;;;;;;8.07;5.63;;;26.80;80.70;;;;;;4970934;28;20024;-77
2022/06/16 08:59:35;;;;;;;6.70;5.43;;;27.00;80.00;;;;;;4978443;28;20055;-78
2022/06/16 09:02:18;;;;;;;6.55;5.90;;;27.10;80.00;;;;;;4977047;28;20115;-77
2022/06/16 09:04:50;;;;;;;7.45;5.72;;;27.10;80.70;;;;;;4959914;28;20501;-78
2022/06/16 09:08:03;;;;;;;12.23;6.95;;;27.10;79.50;;;;;;4957493;28;20513;-77
2022/06/16 09:10:41;;;;;;;8.35;5.50;;;27.50;79.00;;;;;;4956266;28;20071;-80
2022/06/16 09:13:44;;;;;;;7.43;6.10;;;27.90;77.50;;;;;;4956123;28;20529;-77
2022/06/16 09:16:26;;;;;;;5.47;4.75;;;28.00;75.80;;;;;;4957946;28;20048;-78
2022/06/16 09:19:24;;;;;;;7.90;5.63;;;27.80;75.20;;;;;;4958664;28;20027;-78
2022/06/16 09:22:02;;;;;;;12.00;5.80;;;27.70;77.90;;;;;;4952952;28;20036;-80
2022/06/16 09:25:00;;;;;;;5.70;4.93;;;27.50;75.00;;;;;;4971913;28;20039;-80
2022/06/16 09:27:49;;;;;;;5.50;4.97;;;27.90;76.20;;;;;;4976257;28;20070;-79
2022/06/16 09:30:20;;;;;;;7.18;4.65;;;28.20;75.90;;;;;;4965863;28;20040;-77
2022/06/16 09:33:02;;;;;;;8.02;4.68;;;28.30;74.30;;;;;;4958507;28;20126;-77
2022/06/16 09:35:37;;;;;;;7.97;4.90;;;28.30;75.50;;;;;;4971177;28;20063;-77
2022/06/16 09:38:30;;;;;;;5.70;5.07;;;28.80;75.20;;;;;;4963865;28;20561;-80
2022/06/16 09:41:02;;;;;;;5.18;4.68;;;29.00;73.50;;;;;;4939270;28;20047;-78
2022/06/16 09:43:42;;;;;;;8.10;4.68;;;29.30;72.90;;;;;;4939145;28;20058;-77
2022/06/16 09:46:22;;;;;;;7.38;4.90;;;29.30;72.70;;;;;;4937601;29;20826;-78
2022/06/16 09:49:03;;;;;;;5.82;4.90;;;29.20;73.20;;;;;;4943151;28;20036;-78
2022/06/16 09:51:34;;;;;;;4.97;4.22;;;29.20;71.50;;;;;;4969589;28;20035;-77
2022/06/16 09:54:12;;;;;;;6.50;4.47;;;29.50;72.70;;;;;;4977507;28;20062;-77
2022/06/16 09:56:50;;;;;;;7.78;4.30;;;29.70;70.00;;;;;;4977475;28;20043;-77
2022/06/16 09:59:25;;;;;;;7.97;4.15;;;29.70;67.40;;;;;;4971751;28;20402;-77
2022/06/16 10:01:55;;;;;;;7.68;4.28;;;29.80;67.50;;;;;;4958502;28;20039;-77
2022/06/16 10:04:20;;;;;;;5.88;4.07;;;29.80;67.30;;;;;;4961087;28;20070;-78
2022/06/16 10:07:22;;;;;;;5.97;3.83;;;29.90;70.40;;;;;;4977578;28;20485;-78
2022/06/16 10:10:13;;;;;;;3.88;3.47;;;30.10;65.90;;;;;;4964758;28;20052;-78
2022/06/16 10:15:06;;;;;;;6.93;3.90;;;30.10;64.00;;;;;;4936140;29;20123;-74
2022/06/16 10:17:34;;;;;;;6.82;4.00;;;30.30;68.10;;;;;;4936553;28;20044;-74
2022/06/16 10:20:00;;;;;;;6.22;3.75;;;30.30;63.50;;;;;;4930848;29;20495;-74
2022/06/16 10:22:29;;;;;;;4.90;3.50;;;30.30;64.40;;;;;;4938827;28;20040;-74
2022/06/16 10:25:15;;;;;;;4.75;3.20;;;30.20;63.20;;;;;;4938037;28;20040;-74
2022/06/16 10:27:45;;;;;;;5.13;2.85;;;30.40;60.20;;;;;;4938171;28;20036;-74
2022/06/16 10:30:34;;;;;;;4.97;2.97;;;30.20;63.50;;;;;;4936982;28;20472;-74
2022/06/16 10:33:20;;;;;;;3.88;3.35;;;30.30;59.80;;;;;;4937937;28;20095;-74
2022/06/16 10:36:05;;;;;;;4.53;3.00;;;30.20;59.10;;;;;;4938079;29;20053;-74
2022/06/16 10:38:37;;;;;;;6.13;3.28;;;30.50;59.20;;;;;;4937399;28;20119;-74
2022/06/16 10:41:06;;;;;;;6.28;3.30;;;30.50;59.90;;;;;;4937943;29;20091;-74
2022/06/16 10:43:37;;;;;;;3.78;2.67;;;30.50;65.20;;;;;;4938186;28;20489;-74
2022/06/16 10:46:13;;;;;;;4.03;3.08;;;30.50;58.00;;;;;;4937644;28;20044;-74
2022/06/16 10:48:45;;;;;;;4.93;3.03;;;30.40;58.90;;;;;;4938012;28;20100;-74
2022/06/16 10:51:18;;;;;;;5.63;2.78;;;30.30;57.30;;;;;;4936995;29;20040;-74
2022/06/16 10:53:47;;;;;;;4.55;2.90;;;30.20;57.60;;;;;;4938018;28;20032;-74
2022/06/16 10:56:20;;;;;;;6.30;3.00;;;30.20;58.40;;;;;;4938041;28;20506;-74
2022/06/16 10:59:18;;;;;;;4.85;3.00;;;30.20;57.90;;;;;;4936392;29;20044;-74
2022/06/16 11:02:00;;;;;;;3.72;2.83;;;30.60;57.40;;;;;;4937233;28;20573;-74
2022/06/16 11:04:35;;;;;;;4.78;3.15;;;30.80;58.20;;;;;;4937816;28;20131;-74
2022/06/16 11:07:01;;;;;;;2.88;2.58;;;30.70;56.80;;;;;;4937670;28;20036;-74
2022/06/16 11:09:30;;;;;;;4.88;2.80;;;31.00;57.60;;;;;;4938081;28;20516;-74
2022/06/16 11:12:05;;;;;;;5.45;3.00;;;31.00;56.60;;;;;;4937913;28;20485;-74
2022/06/16 11:14:40;;;;;;;4.50;3.00;;;31.30;54.80;;;;;;4937240;28;20044;-74
2022/06/16 11:17:09;;;;;;;4.18;3.00;;;31.30;55.00;;;;;;4937919;28;20040;-74
2022/06/16 11:19:44;;;;;;;5.38;3.15;;;31.00;57.90;;;;;;4936172;28;20135;-74
2022/06/16 11:22:28;;;;;;;6.20;3.42;;;31.00;56.90;;;;;;4937530;28;20119;-74
2022/06/16 11:25:06;;;;;;;4.40;2.60;;;30.80;54.60;;;;;;4937481;28;20040;-74
2022/06/16 11:27:50;;;;;;;2.80;2.60;;;31.10;54.40;;;;;;4937451;28;20455;-74
2022/06/16 11:30:35;;;;;;;3.88;2.95;;;31.30;55.60;;;;;;4929521;29;20048;-74
2022/06/16 11:33:02;;;;;;;3.72;2.72;;;31.70;53.30;;;;;;4935481;28;20087;-74
2022/06/16 11:35:33;;;;;;;7.50;3.35;;;31.40;54.70;;;;;;4937780;28;20040;-74
2022/06/16 11:38:35;;;;;;;6.20;2.88;;;31.30;53.20;;;;;;4937488;28;20104;-74
2022/06/16 11:41:07;;;;;;;4.40;3.10;;;31.30;54.50;;;;;;4937094;28;20044;-74
2022/06/16 11:43:51;;;;;;;5.10;3.25;;;31.30;56.90;;;;;;4937238;28;20068;-74
2022/06/16 11:46:19;;;;;;;3.65;2.92;;;31.30;56.10;;;;;;4936881;28;20096;-74
2022/06/16 11:49:09;;;;;;;3.80;2.97;;;31.30;54.90;;;;;;4937305;28;20096;-74
2022/06/16 11:51:54;;;;;;;4.25;2.90;;;31.40;53.50;;;;;;4918358;29;20037;-74
2022/06/16 11:54:40;;;;;;;5.15;3.05;;;31.80;53.10;;;;;;4918098;29;20527;-74
2022/06/16 11:57:21;;;;;;;6.00;2.90;;;32.00;52.70;;;;;;4918234;29;20168;-74
2022/06/16 11:59:55;;;;;;;4.53;3.15;;;32.00;56.90;;;;;;4920120;29;20546;-74
2022/06/16 12:02:46;;;;;;;4.80;3.17;;;32.40;52.40;;;;;;4929428;29;20036;-74
2022/06/16 12:05:40;;;;;;;4.05;2.97;;;32.30;52.80;;;;;;4934987;28;20135;-74
2022/06/16 12:08:21;;;;;;;3.20;2.80;;;32.50;53.60;;;;;;4935389;29;20063;-74
2022/06/16 12:10:51;;;;;;;4.32;2.88;;;32.60;52.40;;;;;;4937114;28;20770;-74
2022/06/16 12:13:43;;;;;;;4.93;3.05;;;32.70;51.60;;;;;;4935281;29;20044;-74
2022/06/16 12:16:22;;;;;;;6.60;3.22;;;32.50;51.20;;;;;;4936633;28;20490;-74
2022/06/16 12:19:20;;;;;;;3.97;3.05;;;32.30;54.80;;;;;;4936997;28;20044;-74
2022/06/16 12:22:01;;;;;;;4.45;2.85;;;32.40;54.20;;;;;;4935488;29;20040;-74
2022/06/16 12:24:36;;;;;;;7.15;3.15;;;32.10;52.50;;;;;;4936775;28;20040;-74
2022/06/16 12:27:27;;;;;;;3.60;2.72;;;32.20;53.70;;;;;;4936377;28;20032;-74
2022/06/16 12:30:34;;;;;;;8.50;3.22;;;32.60;53.20;;;;;;4935936;28;20100;-74
2022/06/16 12:33:19;;;;;;;4.45;3.30;;;32.40;52.70;;;;;;4938322;28;20080;-74
2022/06/16 12:35:50;;;;;;;3.90;3.03;;;31.50;53.10;;;;;;4936878;28;20047;-74
2022/06/16 12:38:26;;;;;;;9.27;3.38;;;31.20;54.40;;;;;;4936679;28;20108;-74
2022/06/16 12:41:02;;;;;;;6.47;2.78;;;31.30;55.80;;;;;;4936649;28;20498;-74
2022/06/16 12:43:34;;;;;;;6.85;3.35;;;31.50;53.10;;;;;;4936024;28;20095;-74
2022/06/16 12:46:05;;;;;;;4.22;3.10;;;31.70;56.70;;;;;;4951079;28;20549;-74
2022/06/16 12:48:48;;;;;;;3.45;2.92;;;32.00;51.60;;;;;;4937182;28;20073;-74
2022/06/16 12:51:18;;;;;;;3.78;2.90;;;31.80;57.50;;;;;;4936445;28;20036;-74
2022/06/16 12:53:53;;;;;;;6.63;2.95;;;32.30;54.60;;;;;;4936124;28;20123;-74
2022/06/16 12:56:39;;;;;;;5.03;2.80;;;32.10;50.90;;;;;;4934550;28;20486;-74
2022/06/16 12:59:15;;;;;;;4.47;3.05;;;32.50;51.30;;;;;;4936831;28;20036;-74
2022/06/16 13:01:43;;;;;;;6.15;2.80;;;32.60;53.00;;;;;;4936140;28;20087;-74
2022/06/16 13:04:18;;;;;;;4.70;2.83;;;32.80;50.70;;;;;;4935812;28;20433;-74
2022/06/16 13:06:45;;;;;;;3.28;2.47;;;32.90;49.10;;;;;;4936344;28;20052;-74
2022/06/16 13:09:13;;;;;;;5.68;3.22;;;33.30;48.00;;;;;;4936016;28;20044;-74
2022/06/16 13:11:58;;;;;;;3.65;2.72;;;33.50;48.60;;;;;;4935961;28;20040;-74
2022/06/16 13:14:37;;;;;;;3.47;2.80;;;34.10;47.20;;;;;;4935310;28;20044;-74
2022/06/16 13:17:06;;;;;;;3.92;2.90;;;34.40;47.60;;;;;;4935914;28;20043;-74
2022/06/16 13:19:40;;;;;;;4.53;2.92;;;34.30;45.10;;;;;;4936267;28;20036;-74
2022/06/16 13:22:18;;;;;;;5.78;2.53;;;35.10;44.60;;;;;;4936020;28;20040;-74
2022/06/16 13:24:50;;;;;;;4.72;2.83;;;34.50;43.50;;;;;;4935528;28;20059;-74
2022/06/16 13:27:40;;;;;;;3.25;2.65;;;34.80;45.10;;;;;;4936135;28;20045;-74
2022/06/16 13:30:05;;;;;;;6.35;2.90;;;34.70;44.40;;;;;;4936219;28;20040;-74
2022/06/16 13:32:38;;;;;;;7.95;3.00;;;33.80;45.50;;;;;;4935717;28;20070;-74
2022/06/16 13:35:13;;;;;;;7.78;3.28;;;34.00;48.20;;;;;;4936021;28;20051;-74
2022/06/16 13:37:46;;;;;;;6.10;2.95;;;35.50;43.70;;;;;;4935814;28;20032;-74
2022/06/16 13:40:22;;;;;;;4.90;2.80;;;36.00;43.00;;;;;;4938416;28;20067;-74
2022/06/16 13:42:54;;;;;;;3.33;2.90;;;36.60;41.20;;;;;;4939008;28;20028;-75
2022/06/16 13:45:28;;;;;;;4.47;2.65;;;36.90;43.70;;;;;;4939207;28;20506;-75
2022/06/16 13:48:05;;;;;;;3.90;2.72;;;37.50;40.70;;;;;;4939055;28;20396;-75
2022/06/16 13:50:46;;;;;;;5.25;2.75;;;37.30;38.60;;;;;;4939108;28;20032;-75
2022/06/16 13:53:24;;;;;;;4.70;2.50;;;37.80;39.70;;;;;;4939290;28;20032;-75
2022/06/16 13:55:53;;;;;;;4.40;2.22;;;38.00;37.30;;;;;;4938658;28;20051;-75
2022/06/16 13:58:33;;;;;;;3.00;2.28;;;37.90;37.20;;;;;;4937051;28;20509;-75
2022/06/16 14:01:16;;;;;;;4.05;2.58;;;37.50;39.90;;;;;;4938654;28;20132;-75
2022/06/16 14:04:05;;;;;;;5.95;2.40;;;36.90;37.10;;;;;;4938714;28;20043;-75
2022/06/16 14:06:41;;;;;;;4.47;2.92;;;37.80;36.30;;;;;;4938901;28;20036;-75
2022/06/16 14:09:14;;;;;;;3.70;2.50;;;38.40;36.80;;;;;;4938994;28;20573;-75
2022/06/16 14:11:59;;;;;;;4.00;3.00;;;38.00;37.00;;;;;;4939393;28;20068;-75
2022/06/16 14:14:26;;;;;;;5.07;2.33;;;38.80;38.10;;;;;;4938421;28;20047;-75
2022/06/16 14:16:55;;;;;;;4.00;2.45;;;38.60;38.80;;;;;;4938246;28;20127;-75
2022/06/16 14:19:32;;;;;;;5.15;2.72;;;39.10;37.30;;;;;;4938674;28;20048;-75
2022/06/16 14:22:10;;;;;;;5.03;2.50;;;38.90;39.20;;;;;;4938789;28;20035;-75
2022/06/16 14:24:58;;;;;;;3.03;2.47;;;39.10;35.20;;;;;;4938461;28;20123;-75
2022/06/16 14:27:35;;;;;;;4.75;2.75;;;38.80;37.10;;;;;;4938209;28;20127;-75
2022/06/16 14:30:02;;;;;;;7.10;2.53;;;38.80;34.80;;;;;;4938273;28;20036;-75
2022/06/16 14:32:44;;;;;;;5.65;2.13;;;38.70;37.20;;;;;;4938412;28;20127;-75
2022/06/16 14:35:32;;;;;;;5.28;2.75;;;39.00;37.20;;;;;;4938691;28;20036;-75
2022/06/16 14:38:16;;;;;;;3.97;2.50;;;40.10;34.70;;;;;;4938665;28;20105;-75
2022/06/16 14:40:47;;;;;;;6.25;2.40;;;39.70;35.00;;;;;;4938482;28;20514;-75
2022/06/16 14:43:30;;;;;;;3.60;2.33;;;39.70;35.80;;;;;;4937918;28;20075;-75
2022/06/16 14:46:01;;;;;;;5.18;2.40;;;40.50;33.30;;;;;;4937774;28;20049;-75
2022/06/16 14:48:30;;;;;;;3.92;2.60;;;39.70;33.90;;;;;;4936829;28;20047;-75
2022/06/16 14:51:01;;;;;;;3.00;2.35;;;39.20;36.40;;;;;;4937444;28;20569;-75
2022/06/16 14:53:36;;;;;;;3.55;2.55;;;40.40;34.20;;;;;;4938282;28;20886;-75
2022/06/16 14:56:21;;;;;;;6.50;2.55;;;41.00;33.40;;;;;;4936718;28;20431;-75
2022/06/16 14:58:53;;;;;;;4.18;2.67;;;42.20;33.10;;;;;;4938188;28;20517;-75
2022/06/16 15:01:25;;;;;;;2.65;2.45;;;42.80;31.80;;;;;;4937967;28;20123;-75
2022/06/16 15:03:55;;;;;;;3.22;2.40;;;42.50;31.20;;;;;;4937441;28;20649;-75
2022/06/16 15:06:21;;;;;;;3.90;2.50;;;42.40;30.50;;;;;;4937724;28;20047;-75
2022/06/16 15:08:53;;;;;;;3.33;2.63;;;42.80;31.50;;;;;;4937888;29;20042;-75
2022/06/16 15:11:22;;;;;;;4.43;2.35;;;42.50;30.90;;;;;;4937862;28;20047;-75
2022/06/16 15:13:51;;;;;;;3.60;2.58;;;42.90;31.10;;;;;;4937429;28;20072;-75
2022/06/16 15:19:10;;;;;;;7.10;2.65;;;43.50;31.40;;;;;;4937722;29;20040;-75
2022/06/16 15:21:37;;;;;;;4.97;2.70;;;42.60;29.40;;;;;;4937609;28;20410;-75
2022/06/16 15:24:03;;;;;;;4.70;2.40;;;43.00;29.70;;;;;;4937687;28;20844;-75
2022/06/16 15:26:30;;;;;;;3.22;2.20;;;43.90;31.10;;;;;;4937424;28;20123;-75
2022/06/16 15:29:08;;;;;;;5.63;2.55;;;43.20;29.70;;;;;;4937809;28;20044;-75
2022/06/16 15:31:37;;;;;;;3.65;2.40;;;42.40;30.60;;;;;;4937403;28;20107;-75
2022/06/16 15:36:55;;;;;;;5.82;3.03;;;41.90;31.40;;;;;;4935750;29;20044;-75
2022/06/16 15:39:28;;;;;;;4.90;2.50;;;42.70;30.90;;;;;;4937452;28;20525;-75
2022/06/16 15:41:55;;;;;;;2.72;2.20;;;42.10;30.60;;;;;;4937008;28;20040;-75
2022/06/16 15:44:28;;;;;;;3.15;2.08;;;41.10;31.00;;;;;;4937149;28;20040;-75
2022/06/16 15:46:58;;;;;;;3.42;2.33;;;41.60;31.60;;;;;;4937552;28;20036;-75
2022/06/16 15:49:32;;;;;;;4.82;2.60;;;41.30;30.80;;;;;;4937313;28;20047;-75
2022/06/16 15:52:00;;;;;;;2.97;2.60;;;41.70;32.20;;;;;;4936667;28;20032;-75
2022/06/16 15:54:27;;;;;;;3.88;2.53;;;42.00;29.70;;;;;;4936924;28;20044;-75
2022/06/16 15:56:59;;;;;;;2.33;2.10;;;41.70;30.20;;;;;;4936883;28;20043;-75
2022/06/16 15:59:25;;;;;;;3.13;2.33;;;41.70;29.70;;;;;;4937162;28;20502;-75
2022/06/16 16:01:51;;;;;;;5.38;2.08;;;41.40;29.70;;;;;;4935828;28;20044;-75
2022/06/16 16:04:22;;;;;;;5.95;2.50;;;40.80;30.30;;;;;;4935648;28;20044;-75
2022/06/16 16:06:49;;;;;;;3.67;2.20;;;41.60;33.00;;;;;;4935832;28;20470;-75
2022/06/16 16:09:19;;;;;;;3.50;2.10;;;41.90;30.20;;;;;;4936994;28;20047;-75
2022/06/16 16:11:52;;;;;;;2.63;2.10;;;41.80;29.40;;;;;;4936791;28;20040;-75
2022/06/16 16:14:17;;;;;;;3.95;2.40;;;42.10;29.90;;;;;;4979382;23;20124;-77
2022/06/16 16:17:04;;;;;;;4.45;2.38;;;41.60;29.90;;;;;;4973803;28;20039;-77
2022/06/16 16:19:30;;;;;;;2.53;2.30;;;42.50;30.20;;;;;;4975279;28;20039;-77
2022/06/16 16:21:59;;;;;;;4.95;2.53;;;42.80;28.60;;;;;;4975472;28;20035;-77
2022/06/16 16:24:39;;;;;;;3.78;2.40;;;42.80;28.80;;;;;;4975634;28;20035;-73
2022/06/16 16:27:13;;;;;;;4.40;2.40;;;42.00;29.80;;;;;;4975317;28;20043;-73
2022/06/16 16:29:50;;;;;;;7.45;2.88;;;40.50;30.00;;;;;;4974404;28;20043;-73
2022/06/16 16:32:16;;;;;;;3.00;2.13;;;39.90;30.20;;;;;;4957557;28;20028;-72
2022/06/16 16:34:49;;;;;;;3.17;2.05;;;37.90;31.60;;;;;;4957657;28;20031;-73
2022/06/16 16:37:24;;;;;;;3.53;2.05;;;36.10;34.30;;;;;;4975154;28;20521;-72
2022/06/16 16:43:00;;;;;;;3.95;2.50;;;35.20;34.40;;;;;;4972841;28;20040;-73
2022/06/16 16:43:10;;;;;;;2.35;2.15;;;33.70;37.80;;;;;;4969899;28;20074;-73
2022/06/16 16:45:49;;;;;;;4.95;2.10;;;32.40;39.40;;;;;;4974660;28;20457;-73
2022/06/16 16:48:50;;;;;;;2.38;2.00;;;32.20;39.20;;;;;;4975032;28;20031;-71
2022/06/16 16:51:17;;;;;;;4.22;2.15;;;31.90;40.30;;;;;;4961262;28;20115;-74
2022/06/16 16:53:46;;;;;;;2.47;2.17;;;31.60;43.00;;;;;;4955870;28;20043;-72
2022/06/16 16:56:20;;;;;;;4.15;2.17;;;31.30;40.40;;;;;;4954646;28;20168;-72
2022/06/16 16:58:48;;;;;;;2.97;2.20;;;31.20;42.00;;;;;;4954402;28;20391;-72
2022/06/16 17:01:14;;;;;;;5.43;2.30;;;31.00;45.20;;;;;;4963919;28;20545;-71
2022/06/16 17:03:41;;;;;;;3.20;2.17;;;30.80;42.20;;;;;;4969843;28;20547;-73
2022/06/16 17:06:06;;;;;;;3.53;2.00;;;30.80;42.00;;;;;;4974579;28;20031;-72
2022/06/16 17:08:33;;;;;;;3.60;2.40;;;30.70;42.50;;;;;;4974410;28;20039;-72
2022/06/16 17:13:45;;;;;;;5.55;2.40;;;30.40;41.40;;;;;;4960679;28;20629;-72
2022/06/16 17:16:10;;;;;;;3.17;2.25;;;30.20;42.40;;;;;;4958405;28;20067;-72
2022/06/16 17:18:36;;;;;;;3.47;2.47;;;30.10;42.00;;;;;;4959160;28;20118;-71
2022/06/16 17:21:02;;;;;;;5.65;2.47;;;30.00;41.70;;;;;;4970349;28;20043;-72
2022/06/16 17:23:28;;;;;;;3.50;2.10;;;30.00;40.70;;;;;;4977192;28;20039;-72
2022/06/16 17:25:54;;;;;;;3.05;2.08;;;29.70;41.00;;;;;;4978283;28;20043;-71
2022/06/16 17:28:19;;;;;;;4.28;2.13;;;29.60;41.20;;;;;;4978225;28;20039;-71
2022/06/16 17:30:45;;;;;;;3.67;1.80;;;29.40;41.80;;;;;;4969171;28;20463;-71
2022/06/16 17:33:11;;;;;;;5.20;1.70;;;29.00;42.70;;;;;;4971324;28;20115;-72
2022/06/16 17:35:42;;;;;;;7.20;1.88;;;28.80;43.40;;;;;;4978112;28;20035;-72
2022/06/16 17:38:16;;;;;;;4.07;2.00;;;28.60;45.00;;;;;;4977973;28;20027;-71
2022/06/16 17:40:42;;;;;;;3.75;1.90;;;28.50;42.40;;;;;;4969780;28;20115;-71